Time;durP1;ratioP1;P1;durP2;ratioP2;P2;SDS_P1;SDS_P2;PMS_P1;PMS_P2;Temp;Humidity;BMP_temperature;BMP_pressure;BME280_temperature;BME280_humidity;BME280_pressure;Samples;Min_cycle;Max_cycle;Signal;HPM_P1;HPM_P2
2022/11/20 00:01:50;;;;;;;16.90;8.73;;;-0.20;75.80;;;;;;4996227;28;20054;-80
2022/11/20 00:04:16;;;;;;;17.33;9.03;;;-0.30;75.90;;;;;;4994572;28;20027;-80
2022/11/20 00:06:41;;;;;;;17.33;9.13;;;-0.20;76.10;;;;;;4995061;28;20026;-80
2022/11/20 00:09:10;;;;;;;16.30;8.57;;;-0.20;76.20;;;;;;4979290;28;20041;-80
2022/11/20 00:11:35;;;;;;;15.77;8.67;;;-0.30;76.50;;;;;;4995103;28;20046;-80
2022/11/20 00:14:02;;;;;;;16.23;8.20;;;-0.30;76.50;;;;;;5010724;28;20042;-80
2022/11/20 00:16:31;;;;;;;18.10;8.50;;;-0.30;76.50;;;;;;4994805;28;20040;-80
2022/11/20 00:18:56;;;;;;;16.43;9.10;;;-0.30;76.70;;;;;;4995850;28;20065;-79
2022/11/20 00:21:24;;;;;;;15.37;7.67;;;-0.40;77.20;;;;;;5011378;28;20054;-80
2022/11/20 00:23:51;;;;;;;17.87;8.53;;;-0.40;76.80;;;;;;4994413;28;20027;-80
2022/11/20 00:26:19;;;;;;;16.57;8.07;;;-0.40;76.90;;;;;;4994610;28;20761;-80
2022/11/20 00:28:51;;;;;;;15.37;7.33;;;-0.50;76.90;;;;;;4995024;28;20641;-80
2022/11/20 00:31:17;;;;;;;15.03;7.63;;;-0.50;77.10;;;;;;4994210;28;20104;-80
2022/11/20 00:33:44;;;;;;;17.67;8.40;;;-0.50;77.20;;;;;;4995333;28;20665;-79
2022/11/20 00:36:13;;;;;;;16.80;9.13;;;-0.50;77.30;;;;;;4994443;28;20285;-80
2022/11/20 00:38:39;;;;;;;17.40;8.23;;;-0.50;77.40;;;;;;4995761;28;20273;-80
2022/11/20 00:41:08;;;;;;;17.27;8.03;;;-0.60;77.30;;;;;;4995340;28;20280;-79
2022/11/20 00:43:34;;;;;;;17.40;8.20;;;-0.60;77.40;;;;;;4993891;28;20274;-79
2022/11/20 00:46:01;;;;;;;17.50;8.17;;;-0.60;77.50;;;;;;5010745;28;20282;-79
2022/11/20 00:48:27;;;;;;;17.00;7.93;;;-0.60;77.70;;;;;;4995546;28;20618;-79
2022/11/20 00:50:53;;;;;;;18.27;8.73;;;-0.60;77.80;;;;;;4994430;28;20282;-80
2022/11/20 00:53:19;;;;;;;15.97;8.10;;;-0.60;78.00;;;;;;4994011;28;20042;-79
2022/11/20 00:55:58;;;;;;;16.33;7.90;;;-0.60;78.10;;;;;;4994307;28;20364;-79
2022/11/20 00:58:27;;;;;;;15.93;8.73;;;-0.70;78.00;;;;;;4995264;28;20030;-80
2022/11/20 01:00:59;;;;;;;17.83;8.17;;;-0.70;78.10;;;;;;5000091;28;20309;-80
2022/11/20 01:03:24;;;;;;;17.17;7.87;;;-0.70;78.20;;;;;;4994393;28;20022;-80
2022/11/20 01:05:50;;;;;;;18.90;9.07;;;-0.80;78.20;;;;;;4995152;28;20750;-80
2022/11/20 01:08:16;;;;;;;15.63;8.03;;;-0.80;78.40;;;;;;4993901;28;20038;-80
2022/11/20 01:10:42;;;;;;;18.23;8.80;;;-0.90;78.50;;;;;;4993665;28;20489;-80
2022/11/20 01:15:52;;;;;;;16.10;7.78;;;-0.80;78.80;;;;;;4995011;28;20371;-80
2022/11/20 01:18:17;;;;;;;17.03;8.33;;;-0.90;78.80;;;;;;4977830;28;20462;-80
2022/11/20 01:20:43;;;;;;;17.90;8.63;;;-0.90;78.90;;;;;;4977214;28;20026;-79
2022/11/20 01:23:09;;;;;;;17.47;8.27;;;-0.80;79.10;;;;;;4993601;28;20045;-80
2022/11/20 01:25:35;;;;;;;18.20;9.73;;;-0.90;79.20;;;;;;4993659;28;20026;-80
2022/11/20 01:28:00;;;;;;;15.20;8.10;;;-0.90;79.20;;;;;;5009552;28;20034;-80
2022/11/20 01:30:26;;;;;;;14.30;7.53;;;-0.90;79.20;;;;;;5009721;28;20038;-79
2022/11/20 01:32:51;;;;;;;16.33;8.00;;;-0.90;79.20;;;;;;4993296;28;20061;-80
2022/11/20 01:35:17;;;;;;;17.53;8.67;;;-0.90;79.40;;;;;;4993487;28;20545;-79
2022/11/20 01:37:43;;;;;;;16.67;8.30;;;-0.90;79.40;;;;;;4993326;28;20173;-80
2022/11/20 01:40:09;;;;;;;14.43;7.27;;;-0.90;79.40;;;;;;4993644;28;20463;-80
2022/11/20 01:45:59;;;;;;;14.27;7.53;;;-0.90;79.40;;;;;;4993911;28;20300;-80
2022/11/20 01:48:31;;;;;;;13.80;7.30;;;-1.00;79.50;;;;;;4995412;28;20023;-80
2022/11/20 01:50:58;;;;;;;16.33;8.37;;;-1.00;80.30;;;;;;4992987;28;20341;-80
2022/11/20 01:53:27;;;;;;;16.90;8.33;;;-0.90;79.80;;;;;;4976667;28;20302;-80
2022/11/20 01:55:56;;;;;;;13.57;7.30;;;-1.00;79.80;;;;;;4993074;28;20269;-80
2022/11/20 01:58:29;;;;;;;17.70;8.87;;;-1.00;80.00;;;;;;4994303;28;20285;-80
2022/11/20 02:00:55;;;;;;;14.85;6.60;;;-1.00;80.10;;;;;;4994246;28;20273;-80
2022/11/20 02:03:21;;;;;;;15.00;7.60;;;-0.90;80.30;;;;;;4992796;28;20131;-80
2022/11/20 02:06:04;;;;;;;14.73;7.77;;;-1.00;80.30;;;;;;4992876;28;20049;-81
2022/11/20 02:08:33;;;;;;;16.55;7.75;;;-1.00;80.50;;;;;;4992662;28;20077;-80
2022/11/20 02:10:58;;;;;;;16.83;8.33;;;-1.00;80.60;;;;;;4992443;28;20086;-81
2022/11/20 02:16:12;;;;;;;15.45;7.65;;;-1.00;80.80;;;;;;5007082;28;20041;-80
2022/11/20 02:18:39;;;;;;;18.27;8.93;;;-1.00;80.90;;;;;;4994476;28;20033;-81
2022/11/20 02:21:18;;;;;;;18.63;8.30;;;-1.00;81.00;;;;;;4992702;28;20332;-79
2022/11/20 02:24:14;;;;;;;16.20;8.27;;;-1.00;81.10;;;;;;4992419;28;20285;-80
2022/11/20 02:27:03;;;;;;;16.70;8.17;;;-1.10;81.10;;;;;;4985156;28;20772;-80
2022/11/20 02:29:40;;;;;;;15.47;7.43;;;-1.10;81.10;;;;;;4993479;28;20274;-80
2022/11/20 02:32:06;;;;;;;17.13;7.90;;;-1.10;81.10;;;;;;4992464;28;20611;-79
2022/11/20 02:34:32;;;;;;;16.37;7.80;;;-1.10;81.20;;;;;;4992179;28;20328;-79
2022/11/20 02:36:59;;;;;;;18.20;8.13;;;-1.10;81.20;;;;;;4993598;28;20029;-79
2022/11/20 02:39:28;;;;;;;15.73;7.77;;;-1.10;81.30;;;;;;4992363;28;20022;-79
2022/11/20 02:41:55;;;;;;;15.37;7.73;;;-1.20;81.30;;;;;;4992358;28;20285;-79
2022/11/20 02:44:21;;;;;;;17.57;8.10;;;-1.20;81.30;;;;;;4992148;28;20793;-79
2022/11/20 02:46:48;;;;;;;18.77;8.93;;;-1.20;81.50;;;;;;4992171;28;20321;-79
2022/11/20 02:49:13;;;;;;;16.17;8.00;;;-1.20;81.50;;;;;;4992359;28;20117;-79
2022/11/20 02:51:39;;;;;;;16.40;8.30;;;-1.30;81.60;;;;;;4992454;28;20393;-79
2022/11/20 02:54:04;;;;;;;15.30;7.57;;;-1.30;81.70;;;;;;4993579;28;20435;-79
2022/11/20 02:56:30;;;;;;;15.27;7.67;;;-1.30;81.80;;;;;;4976463;28;20437;-80
2022/11/20 02:58:56;;;;;;;16.13;8.17;;;-1.30;81.90;;;;;;4992500;28;20027;-79
2022/11/20 03:01:22;;;;;;;16.00;8.27;;;-1.30;81.90;;;;;;4991979;28;20080;-79
2022/11/20 03:03:52;;;;;;;17.13;8.03;;;-1.30;82.00;;;;;;4992251;28;20022;-79
2022/11/20 03:06:17;;;;;;;17.97;8.10;;;-1.40;82.00;;;;;;4992289;28;20022;-79
2022/11/20 03:08:43;;;;;;;14.73;7.53;;;-1.30;82.10;;;;;;4993385;28;20634;-79
2022/11/20 03:11:09;;;;;;;16.60;7.63;;;-1.40;82.10;;;;;;4975849;28;20388;-80
2022/11/20 03:13:35;;;;;;;15.90;8.13;;;-1.40;82.10;;;;;;4992942;28;20078;-79
2022/11/20 03:16:13;;;;;;;15.07;7.90;;;-1.40;82.20;;;;;;4992062;28;20121;-80
2022/11/20 03:18:40;;;;;;;14.97;7.63;;;-1.40;82.20;;;;;;4991947;28;20281;-80
2022/11/20 03:21:07;;;;;;;15.70;7.53;;;-1.40;82.30;;;;;;4992219;28;20281;-80
2022/11/20 03:23:33;;;;;;;16.73;7.70;;;-1.50;82.30;;;;;;4992553;28;20388;-80
2022/11/20 03:26:16;;;;;;;16.53;7.57;;;-1.50;82.30;;;;;;4995694;28;20874;-79
2022/11/20 03:28:46;;;;;;;16.97;7.80;;;-1.40;82.50;;;;;;4995504;28;20289;-80
2022/11/20 03:31:14;;;;;;;14.70;8.27;;;-1.50;82.50;;;;;;4995700;28;20278;-80
2022/11/20 03:33:41;;;;;;;15.57;7.77;;;-1.50;82.50;;;;;;4996897;28;20359;-80
2022/11/20 03:36:10;;;;;;;18.57;8.80;;;-1.50;82.60;;;;;;4995661;28;20284;-80
2022/11/20 03:38:36;;;;;;;17.90;8.83;;;-1.50;82.70;;;;;;4995782;28;20277;-80
2022/11/20 03:41:26;;;;;;;15.17;8.10;;;-1.50;82.80;;;;;;4995263;28;20305;-80
2022/11/20 03:43:54;;;;;;;19.47;8.77;;;-1.50;83.00;;;;;;4995206;28;20669;-79
2022/11/20 03:46:21;;;;;;;18.00;7.63;;;-1.60;83.10;;;;;;4995402;28;20277;-80
2022/11/20 03:48:47;;;;;;;15.70;7.97;;;-1.60;83.10;;;;;;4995215;28;20285;-80
2022/11/20 03:51:15;;;;;;;16.23;7.77;;;-1.60;83.30;;;;;;5011729;28;20355;-80
2022/11/20 03:53:42;;;;;;;18.63;8.63;;;-1.60;83.30;;;;;;4994974;28;20304;-79
2022/11/20 03:56:08;;;;;;;16.57;7.90;;;-1.50;83.40;;;;;;4995128;28;20277;-79
2022/11/20 03:58:41;;;;;;;17.40;8.17;;;-1.50;83.40;;;;;;5011389;28;20278;-79
2022/11/20 04:01:16;;;;;;;16.23;7.27;;;-1.60;83.40;;;;;;4996311;28;20312;-79
2022/11/20 04:03:43;;;;;;;16.33;7.20;;;-1.60;83.40;;;;;;4995238;28;20281;-79
2022/11/20 04:06:14;;;;;;;13.60;7.47;;;-1.60;83.50;;;;;;4996223;28;20269;-79
2022/11/20 04:08:41;;;;;;;16.50;8.37;;;-1.60;83.50;;;;;;4995121;28;20286;-79
2022/11/20 04:11:18;;;;;;;18.03;8.00;;;-1.70;83.50;;;;;;4994678;28;20301;-79
2022/11/20 04:13:50;;;;;;;16.13;7.60;;;-1.70;83.60;;;;;;4994524;28;20646;-78
2022/11/20 04:16:16;;;;;;;16.90;7.87;;;-1.80;83.70;;;;;;4994757;28;20285;-79
2022/11/20 04:18:41;;;;;;;15.27;7.67;;;-1.80;83.80;;;;;;5011215;28;20368;-78
2022/11/20 04:21:07;;;;;;;21.27;8.97;;;-1.80;83.90;;;;;;4994864;28;20848;-79
2022/11/20 04:23:33;;;;;;;16.43;8.27;;;-1.80;83.90;;;;;;5011075;28;20041;-79
2022/11/20 04:26:10;;;;;;;16.50;8.27;;;-1.70;84.00;;;;;;4995003;28;20035;-78
2022/11/20 04:28:36;;;;;;;18.73;8.53;;;-1.80;84.10;;;;;;4994429;28;20545;-79
2022/11/20 04:31:11;;;;;;;19.30;9.37;;;-1.90;84.10;;;;;;5010810;28;20277;-81
2022/11/20 04:33:37;;;;;;;19.00;8.97;;;-1.90;84.20;;;;;;4994198;28;20297;-79
2022/11/20 04:36:06;;;;;;;16.70;8.60;;;-1.90;84.30;;;;;;4993836;28;20281;-79
2022/11/20 04:38:32;;;;;;;21.23;8.57;;;-1.90;84.30;;;;;;4995428;28;20364;-80
2022/11/20 04:41:02;;;;;;;19.30;9.27;;;-1.90;84.40;;;;;;4994298;28;20851;-80
2022/11/20 04:43:28;;;;;;;18.07;8.40;;;-1.90;84.40;;;;;;4994231;28;20022;-80
2022/11/20 04:45:55;;;;;;;16.73;7.97;;;-2.00;84.40;;;;;;4993849;28;20307;-80
2022/11/20 04:48:21;;;;;;;18.13;8.53;;;-2.00;84.40;;;;;;4994370;28;20029;-80
2022/11/20 04:50:46;;;;;;;16.40;7.83;;;-2.00;84.50;;;;;;5010417;28;20278;-80
2022/11/20 04:53:12;;;;;;;16.70;7.80;;;-2.00;84.50;;;;;;4994343;28;20043;-80
2022/11/20 04:55:38;;;;;;;17.83;7.67;;;-2.10;84.40;;;;;;5010108;28;20394;-80
2022/11/20 04:58:03;;;;;;;14.97;8.20;;;-2.10;84.50;;;;;;4994048;28;20546;-80
2022/11/20 05:00:29;;;;;;;15.30;7.97;;;-2.00;84.60;;;;;;4977644;28;20034;-79
2022/11/20 05:02:54;;;;;;;17.37;8.33;;;-2.10;84.60;;;;;;4994215;28;20117;-80
2022/11/20 05:05:20;;;;;;;17.13;7.87;;;-2.20;84.60;;;;;;4994213;28;20065;-80
2022/11/20 05:07:46;;;;;;;18.27;8.13;;;-2.10;84.70;;;;;;4993600;28;20027;-80
2022/11/20 05:10:12;;;;;;;19.53;8.80;;;-2.20;84.70;;;;;;4995999;28;20077;-80
2022/11/20 05:12:37;;;;;;;18.20;8.60;;;-2.10;84.80;;;;;;4980787;28;20030;-80
2022/11/20 05:15:03;;;;;;;18.07;8.50;;;-2.20;84.80;;;;;;4997191;28;20092;-79
2022/11/20 05:17:29;;;;;;;14.60;7.53;;;-2.20;84.80;;;;;;4996662;28;20033;-79
2022/11/20 05:19:55;;;;;;;15.43;8.03;;;-2.20;84.90;;;;;;4996744;28;20030;-79
2022/11/20 05:22:20;;;;;;;16.23;7.90;;;-2.20;84.90;;;;;;4996712;28;20026;-80
2022/11/20 05:24:46;;;;;;;16.33;7.90;;;-2.20;85.00;;;;;;4996785;28;20516;-80
2022/11/20 05:27:12;;;;;;;17.30;8.60;;;-2.20;85.00;;;;;;4996773;28;20030;-79
2022/11/20 05:29:37;;;;;;;18.93;8.53;;;-2.20;85.20;;;;;;5014233;28;20030;-79
2022/11/20 05:32:05;;;;;;;15.70;7.93;;;-2.20;85.20;;;;;;4996832;28;20183;-78
2022/11/20 05:34:31;;;;;;;16.73;8.20;;;-2.30;85.20;;;;;;4996344;28;20049;-80
2022/11/20 05:36:57;;;;;;;18.93;8.03;;;-2.30;85.20;;;;;;5012912;28;20371;-79
2022/11/20 05:39:22;;;;;;;18.17;8.27;;;-2.30;85.60;;;;;;5014316;28;20022;-79
2022/11/20 05:42:29;;;;;;;18.67;8.20;;;-2.30;85.40;;;;;;4996549;28;20030;-80
2022/11/20 05:44:33;;;;;;;17.77;7.63;;;-2.30;85.50;;;;;;5013573;28;20034;-79
2022/11/20 05:46:59;;;;;;;16.93;7.97;;;-2.30;85.60;;;;;;4995386;28;20798;-79
2022/11/20 05:49:25;;;;;;;18.93;8.70;;;-2.30;85.60;;;;;;4996513;28;20026;-80
2022/11/20 05:51:50;;;;;;;17.20;8.60;;;-2.30;85.60;;;;;;4996288;28;20080;-79
2022/11/20 05:54:16;;;;;;;15.80;7.73;;;-2.30;85.60;;;;;;5012701;28;20471;-80
2022/11/20 05:56:41;;;;;;;17.03;8.67;;;-2.30;85.70;;;;;;4995787;28;20437;-79
2022/11/20 05:59:07;;;;;;;17.23;8.67;;;-2.20;86.00;;;;;;5013832;28;20037;-80
2022/11/20 06:01:33;;;;;;;19.03;8.30;;;-2.30;86.00;;;;;;4996024;28;20029;-80
2022/11/20 06:03:59;;;;;;;18.13;8.27;;;-2.30;86.00;;;;;;4979987;28;20432;-80
2022/11/20 06:06:25;;;;;;;19.03;8.83;;;-2.30;86.00;;;;;;4995718;28;20116;-80
2022/11/20 06:08:51;;;;;;;18.83;8.80;;;-2.30;86.00;;;;;;4979940;28;20133;-80
2022/11/20 06:11:17;;;;;;;17.63;8.33;;;-2.30;86.00;;;;;;5012455;28;20296;-80
2022/11/20 06:13:44;;;;;;;16.57;8.03;;;-2.30;86.10;;;;;;4996901;28;20133;-80
2022/11/20 06:16:13;;;;;;;16.97;8.33;;;-2.30;86.20;;;;;;4998217;28;20346;-80
2022/11/20 06:18:39;;;;;;;17.87;8.00;;;-2.30;86.30;;;;;;5014540;28;20791;-80
2022/11/20 06:21:11;;;;;;;19.33;8.77;;;-2.40;86.40;;;;;;5013723;28;20276;-80
2022/11/20 06:23:37;;;;;;;17.63;8.57;;;-2.40;86.50;;;;;;5010387;28;20320;-80
2022/11/20 06:26:09;;;;;;;17.97;8.57;;;-2.40;86.60;;;;;;4994970;28;20760;-80
2022/11/20 06:28:35;;;;;;;18.07;8.57;;;-2.40;86.70;;;;;;4994073;28;20280;-80
2022/11/20 06:31:01;;;;;;;17.93;9.27;;;-2.40;86.70;;;;;;4995939;28;20363;-80
2022/11/20 06:33:27;;;;;;;18.40;9.10;;;-2.30;86.90;;;;;;5012009;28;20307;-80
2022/11/20 06:36:00;;;;;;;18.03;8.83;;;-2.40;87.00;;;;;;4963176;28;20680;-80
2022/11/20 06:38:26;;;;;;;17.37;9.30;;;-2.40;87.10;;;;;;4994887;28;20022;-79
2022/11/20 06:40:52;;;;;;;18.20;9.00;;;-2.40;87.20;;;;;;5011749;28;20287;-80
2022/11/20 06:43:17;;;;;;;19.07;9.17;;;-2.40;87.20;;;;;;4978406;28;20372;-80
2022/11/20 06:45:43;;;;;;;18.57;9.23;;;-2.30;87.40;;;;;;4979110;28;20445;-80
2022/11/20 06:48:09;;;;;;;17.67;9.03;;;-2.30;87.50;;;;;;4963745;28;20026;-80
2022/11/20 06:50:37;;;;;;;19.27;9.07;;;-2.30;87.50;;;;;;4995591;28;20494;-80
2022/11/20 06:53:03;;;;;;;20.73;9.23;;;-2.40;87.60;;;;;;4995863;28;20046;-80
2022/11/20 06:55:30;;;;;;;17.87;8.67;;;-2.40;87.70;;;;;;4995310;28;20287;-80
2022/11/20 06:57:56;;;;;;;16.93;9.00;;;-2.30;87.70;;;;;;4980704;28;20371;-80
2022/11/20 07:00:21;;;;;;;16.20;8.47;;;-2.30;87.80;;;;;;4983540;28;20852;-80
2022/11/20 07:02:47;;;;;;;19.50;9.67;;;-2.30;88.40;;;;;;4983646;28;20034;-80
2022/11/20 07:05:13;;;;;;;18.70;8.90;;;-2.30;87.90;;;;;;4999648;28;20053;-80
2022/11/20 07:07:38;;;;;;;18.10;8.57;;;-2.30;88.00;;;;;;5015697;28;20025;-80
2022/11/20 07:10:05;;;;;;;18.20;7.93;;;-2.30;88.00;;;;;;4982991;28;20026;-79
2022/11/20 07:12:30;;;;;;;18.50;9.13;;;-2.30;88.10;;;;;;4982725;28;20057;-80
2022/11/20 07:14:56;;;;;;;19.47;9.30;;;-2.20;88.20;;;;;;4982650;28;20292;-80
2022/11/20 07:17:22;;;;;;;17.63;8.67;;;-2.20;88.20;;;;;;4967032;28;20501;-79
2022/11/20 07:19:47;;;;;;;17.37;8.53;;;-2.20;88.20;;;;;;5015426;28;20026;-80
2022/11/20 07:22:13;;;;;;;19.63;8.70;;;-2.20;88.30;;;;;;4999086;28;20030;-80
2022/11/20 07:24:39;;;;;;;15.97;7.97;;;-2.20;88.30;;;;;;4999619;28;20552;-80
2022/11/20 07:27:04;;;;;;;17.83;8.33;;;-2.20;88.40;;;;;;4982787;28;20037;-79
2022/11/20 07:29:30;;;;;;;15.80;8.73;;;-2.10;88.50;;;;;;4982769;28;20120;-80
2022/11/20 07:31:56;;;;;;;17.73;8.70;;;-2.10;88.60;;;;;;4982865;28;20037;-80
2022/11/20 07:34:22;;;;;;;18.20;8.67;;;-2.10;88.60;;;;;;4982414;28;20041;-80
2022/11/20 07:36:48;;;;;;;20.30;9.33;;;-2.00;88.70;;;;;;4982742;28;20030;-80
2022/11/20 07:39:14;;;;;;;17.13;8.90;;;-2.00;88.70;;;;;;5015077;28;20367;-80
2022/11/20 07:41:39;;;;;;;17.90;9.60;;;-2.00;88.80;;;;;;4998653;28;20386;-80
2022/11/20 07:44:05;;;;;;;19.33;8.90;;;-2.00;88.80;;;;;;4992305;28;20030;-80
2022/11/20 07:46:31;;;;;;;19.10;10.53;;;-1.90;88.90;;;;;;4985166;28;20513;-79
2022/11/20 07:48:57;;;;;;;22.13;10.90;;;-1.90;89.00;;;;;;5016821;28;20536;-80
2022/11/20 07:51:22;;;;;;;17.13;8.73;;;-1.90;89.10;;;;;;5002021;28;20033;-80
2022/11/20 07:53:51;;;;;;;21.80;9.80;;;-1.80;89.30;;;;;;4985630;28;20041;-80
2022/11/20 07:56:17;;;;;;;16.57;9.20;;;-1.70;89.40;;;;;;5001661;28;20025;-80
2022/11/20 07:58:42;;;;;;;19.67;9.77;;;-1.70;90.00;;;;;;5000879;28;20283;-80
2022/11/20 08:01:08;;;;;;;21.23;10.77;;;-1.60;89.60;;;;;;5001639;28;20029;-80
2022/11/20 08:03:37;;;;;;;19.93;9.73;;;-1.50;89.70;;;;;;5017765;28;20034;-80
2022/11/20 08:06:03;;;;;;;20.20;10.50;;;-1.40;89.90;;;;;;5017996;28;20021;-80
2022/11/20 08:08:29;;;;;;;23.70;10.67;;;-1.30;90.00;;;;;;5001468;28;20284;-80
2022/11/20 08:14:11;;;;;;;22.83;11.17;;;-1.30;90.00;;;;;;5013278;28;20293;-80
2022/11/20 08:16:28;;;;;;;20.63;10.50;;;-1.10;90.00;;;;;;5015915;28;20795;-80
2022/11/20 08:18:53;;;;;;;18.50;9.73;;;-1.00;90.10;;;;;;4998270;28;20277;-79
2022/11/20 08:21:19;;;;;;;20.90;9.67;;;-0.90;90.10;;;;;;4981928;28;20022;-80
2022/11/20 08:23:45;;;;;;;21.20;11.10;;;-0.90;90.10;;;;;;4997912;28;20073;-80
2022/11/20 08:26:10;;;;;;;17.83;9.70;;;-0.80;90.10;;;;;;5015667;28;20034;-80
2022/11/20 08:28:36;;;;;;;21.53;11.07;;;-0.70;90.10;;;;;;4997690;28;20026;-80
2022/11/20 08:31:03;;;;;;;20.07;10.93;;;-0.70;90.10;;;;;;4998295;28;20037;-80
2022/11/20 08:33:29;;;;;;;22.73;10.13;;;-0.60;90.20;;;;;;4998198;28;20042;-80
2022/11/20 08:36:02;;;;;;;20.97;10.10;;;-0.50;90.20;;;;;;5014633;28;20022;-80
2022/11/20 08:38:29;;;;;;;20.40;10.88;;;-0.40;90.20;;;;;;5013835;28;20382;-80
2022/11/20 08:43:44;;;;;;;19.97;10.50;;;-0.30;90.30;;;;;;5013812;28;20497;-80
2022/11/20 08:46:10;;;;;;;20.83;10.63;;;-0.10;90.30;;;;;;4997894;28;20034;-81
2022/11/20 08:48:36;;;;;;;21.40;11.73;;;0.00;90.30;;;;;;4997213;28;20084;-80
2022/11/20 08:51:02;;;;;;;22.53;11.90;;;0.10;90.30;;;;;;5014018;28;20037;-81
2022/11/20 08:53:27;;;;;;;19.80;11.80;;;0.20;90.40;;;;;;4997277;28;20038;-80
2022/11/20 08:55:53;;;;;;;21.83;12.00;;;0.30;90.30;;;;;;4997147;28;20030;-80
2022/11/20 08:58:19;;;;;;;20.53;12.30;;;0.40;90.30;;;;;;5013632;28;20458;-81
2022/11/20 09:00:44;;;;;;;20.37;12.00;;;0.50;90.30;;;;;;4997428;28;20025;-80
2022/11/20 09:03:10;;;;;;;23.10;13.07;;;0.60;90.30;;;;;;4997377;28;20034;-80
2022/11/20 09:05:36;;;;;;;24.43;13.50;;;0.70;90.30;;;;;;5014907;28;20385;-80
2022/11/20 09:08:01;;;;;;;21.40;11.57;;;0.70;90.20;;;;;;4997159;28;20389;-80
2022/11/20 09:10:27;;;;;;;22.60;11.83;;;0.90;90.20;;;;;;4998584;28;20022;-80
2022/11/20 09:12:55;;;;;;;22.40;12.77;;;0.80;90.20;;;;;;5033794;28;20065;-80
2022/11/20 09:15:21;;;;;;;20.47;11.47;;;0.90;90.10;;;;;;5016500;28;20128;-80
2022/11/20 09:17:58;;;;;;;22.63;11.90;;;0.90;90.10;;;;;;5017080;28;20057;-80
2022/11/20 09:20:25;;;;;;;22.13;12.00;;;1.00;90.10;;;;;;5016468;28;20120;-80
2022/11/20 09:22:51;;;;;;;26.80;12.83;;;1.20;90.10;;;;;;5016418;28;20075;-80
2022/11/20 09:25:17;;;;;;;23.87;13.20;;;1.10;90.10;;;;;;5017062;28;20034;-80
2022/11/20 09:27:43;;;;;;;21.80;12.43;;;1.10;90.10;;;;;;4999864;28;20465;-80
2022/11/20 09:30:10;;;;;;;20.73;11.67;;;1.20;90.10;;;;;;5016936;28;20029;-80
2022/11/20 09:32:35;;;;;;;24.70;12.97;;;1.20;90.10;;;;;;4999782;28;20029;-80
2022/11/20 09:35:01;;;;;;;22.80;13.17;;;1.30;90.10;;;;;;5016366;28;20393;-79
2022/11/20 09:37:27;;;;;;;24.63;12.77;;;1.30;90.10;;;;;;5016324;28;20480;-80
2022/11/20 09:39:53;;;;;;;21.77;11.97;;;1.40;90.10;;;;;;5016161;28;20021;-80
2022/11/20 09:42:30;;;;;;;21.70;12.17;;;1.40;90.10;;;;;;5000270;28;20053;-80
2022/11/20 09:45:02;;;;;;;23.50;12.77;;;1.50;90.10;;;;;;5016144;28;20025;-80
2022/11/20 09:47:36;;;;;;;24.37;13.57;;;1.50;90.10;;;;;;5016119;28;20064;-80
2022/11/20 09:50:12;;;;;;;23.13;13.47;;;1.60;90.10;;;;;;5015660;28;20472;-80
2022/11/20 09:52:50;;;;;;;23.47;13.03;;;1.70;90.10;;;;;;5016010;28;20025;-80
2022/11/20 09:55:16;;;;;;;24.97;13.73;;;1.70;90.10;;;;;;5015973;28;20117;-80
2022/11/20 09:57:48;;;;;;;22.50;13.27;;;1.70;90.00;;;;;;5015543;28;20025;-80
2022/11/20 10:00:16;;;;;;;25.57;13.40;;;1.80;90.10;;;;;;4999592;28;20037;-80
2022/11/20 10:02:59;;;;;;;23.63;13.03;;;1.90;90.10;;;;;;5015981;28;20052;-80
2022/11/20 10:05:33;;;;;;;24.50;14.10;;;1.90;90.10;;;;;;5016676;28;20029;-80
2022/11/20 10:08:05;;;;;;;21.17;12.48;;;2.10;90.20;;;;;;5015481;28;20026;-80
2022/11/20 10:10:35;;;;;;;21.97;12.53;;;2.10;90.10;;;;;;5015630;28;20434;-79
2022/11/20 10:13:09;;;;;;;22.90;13.03;;;2.20;90.00;;;;;;5014943;28;20049;-79
2022/11/20 10:16:24;;;;;;;23.45;13.77;;;2.30;89.90;;;;;;5033277;28;20025;-79
2022/11/20 10:19:20;;;;;;;25.55;14.40;;;2.40;89.80;;;;;;4989262;28;20041;-81
2022/11/20 10:22:18;;;;;;;23.10;13.20;;;2.50;89.60;;;;;;5032684;28;20031;-79
2022/11/20 10:24:56;;;;;;;23.73;13.93;;;2.50;89.50;;;;;;4985544;28;20037;-80
2022/11/20 10:27:40;;;;;;;23.07;13.13;;;2.60;89.50;;;;;;5033270;28;20021;-79
2022/11/20 10:30:05;;;;;;;17.75;10.65;;;2.70;89.40;;;;;;5032720;28;20021;-82
2022/11/20 10:32:38;;;;;;;21.23;13.40;;;2.80;89.40;;;;;;5014640;28;20035;-80
2022/11/20 10:35:43;;;;;;;25.83;13.30;;;2.90;89.40;;;;;;5015143;28;20041;-80
2022/11/20 10:38:30;;;;;;;24.20;13.43;;;3.00;89.40;;;;;;5015188;28;20083;-80
2022/11/20 10:43:47;;;;;;;22.77;14.00;;;3.20;89.40;;;;;;5032807;28;20059;-80
2022/11/20 10:46:22;;;;;;;22.97;13.50;;;3.40;89.80;;;;;;5032570;28;20021;-80
2022/11/20 10:48:48;;;;;;;;;;;3.60;90.00;;;;;;5015731;28;20028;-80
2022/11/20 10:51:32;;;;;;;23.47;12.97;;;3.70;89.80;;;;;;5014995;28;20423;-81
2022/11/20 10:54:01;;;;;;;;;;;3.80;89.50;;;;;;5015656;28;20087;-80
2022/11/20 10:56:29;;;;;;;21.13;12.50;;;3.80;89.40;;;;;;5015011;28;20367;-80
2022/11/20 10:59:34;;;;;;;22.50;13.40;;;4.00;89.10;;;;;;5014827;28;20033;-81
2022/11/20 11:01:59;;;;;;;21.88;13.73;;;4.00;88.90;;;;;;5000988;28;20037;-80
2022/11/20 11:04:28;;;;;;;23.83;14.67;;;4.00;88.60;;;;;;5014939;28;20409;-79
2022/11/20 11:07:10;;;;;;;26.83;14.87;;;4.10;88.50;;;;;;5015039;28;20474;-80
2022/11/20 11:09:42;;;;;;;23.10;14.73;;;4.10;88.30;;;;;;5015197;28;20048;-80
2022/11/20 11:12:09;;;;;;;28.00;14.87;;;4.10;88.20;;;;;;5015041;28;20473;-80
2022/11/20 11:14:47;;;;;;;25.60;14.80;;;4.20;88.20;;;;;;4998192;28;20128;-80
2022/11/20 11:17:27;;;;;;;25.63;15.53;;;4.20;88.00;;;;;;5014973;28;20018;-80
2022/11/20 11:20:16;;;;;;;27.37;14.20;;;4.30;87.90;;;;;;5015065;28;20038;-80
2022/11/20 11:22:57;;;;;;;24.00;14.47;;;4.30;87.90;;;;;;5014754;28;20362;-81
2022/11/20 11:25:35;;;;;;;24.27;14.30;;;4.40;87.80;;;;;;5014822;28;20025;-81
2022/11/20 11:28:04;;;;;;;23.93;14.73;;;4.50;87.70;;;;;;5015122;28;20029;-80
2022/11/20 11:30:40;;;;;;;23.23;14.57;;;4.50;87.60;;;;;;5014904;28;20107;-80
2022/11/20 11:33:10;;;;;;;26.90;15.27;;;4.70;87.60;;;;;;4999982;28;20444;-81
2022/11/20 11:35:45;;;;;;;23.53;14.57;;;4.70;87.30;;;;;;5032538;28;20132;-81
2022/11/20 11:38:19;;;;;;;23.73;14.83;;;4.80;87.20;;;;;;5032710;28;20421;-81
2022/11/20 11:40:47;;;;;;;26.20;14.48;;;4.70;86.90;;;;;;5015045;28;20025;-81
2022/11/20 11:46:32;;;;;;;24.00;13.73;;;4.80;86.50;;;;;;5035362;28;20084;-81
2022/11/20 11:49:04;;;;;;;24.57;14.73;;;4.70;86.20;;;;;;5016069;28;20045;-81
2022/11/20 11:51:47;;;;;;;26.60;16.30;;;4.70;86.00;;;;;;5006916;28;20022;-81
2022/11/20 11:54:31;;;;;;;23.33;14.63;;;4.60;85.90;;;;;;4998820;28;20029;-81
2022/11/20 11:57:00;;;;;;;;;;;4.60;85.80;;;;;;5016949;28;20101;-81
2022/11/20 11:59:34;;;;;;;21.50;13.20;;;4.60;86.00;;;;;;5016154;28;19927;-81
2022/11/20 12:02:13;;;;;;;24.02;13.52;;;4.60;85.90;;;;;;4998218;28;20066;-81
2022/11/20 12:04:46;;;;;;;25.00;14.83;;;4.50;85.90;;;;;;4998380;28;20022;-81
2022/11/20 12:07:20;;;;;;;22.23;13.70;;;4.50;85.80;;;;;;5014789;28;20026;-81
2022/11/20 12:09:51;;;;;;;23.80;13.87;;;4.50;85.90;;;;;;4998401;28;20026;-81
2022/11/20 12:12:22;;;;;;;23.03;13.93;;;4.50;86.00;;;;;;5000667;28;20038;-81
2022/11/20 12:14:50;;;;;;;24.23;13.63;;;4.50;86.20;;;;;;5013792;28;20096;-81
2022/11/20 12:17:17;;;;;;;25.10;14.13;;;4.50;86.30;;;;;;4997803;28;20528;-81
2022/11/20 12:19:43;;;;;;;23.13;13.97;;;4.50;86.30;;;;;;4997864;28;20120;-81
2022/11/20 12:22:24;;;;;;;26.13;15.90;;;4.50;86.60;;;;;;4997393;28;20026;-81
2022/11/20 12:25:14;;;;;;;21.43;13.30;;;4.50;86.70;;;;;;5015520;28;20477;-80
2022/11/20 12:28:04;;;;;;;23.07;14.47;;;4.50;86.60;;;;;;5015422;28;20029;-80
2022/11/20 12:30:35;;;;;;;24.67;14.87;;;4.50;86.60;;;;;;5011694;28;20040;-80
2022/11/20 12:33:29;;;;;;;21.80;12.60;;;4.50;86.60;;;;;;5017364;28;20386;-80
2022/11/20 12:36:40;;;;;;;22.45;13.68;;;4.60;86.80;;;;;;5017218;28;20389;-80
2022/11/20 12:39:24;;;;;;;24.57;14.03;;;4.60;86.80;;;;;;4993198;28;20037;-80
2022/11/20 12:45:13;;;;;;;25.13;15.13;;;4.60;86.90;;;;;;5030841;28;20040;-80
2022/11/20 12:47:47;;;;;;;24.53;14.93;;;4.60;87.40;;;;;;5016888;28;20017;-81
2022/11/20 12:50:42;;;;;;;27.10;16.27;;;4.60;87.30;;;;;;5034401;28;20021;-81
2022/11/20 12:53:21;;;;;;;;;;;4.60;87.60;;;;;;5016933;28;20373;-81
2022/11/20 12:55:56;;;;;;;25.73;15.57;;;4.60;87.80;;;;;;5033989;28;20388;-81
2022/11/20 12:58:33;;;;;;;29.20;17.67;;;4.60;87.60;;;;;;5016738;28;20029;-81
2022/11/20 13:01:39;;;;;;;30.00;17.63;;;4.60;87.60;;;;;;5017067;28;20026;-81
2022/11/20 13:04:24;;;;;;;29.33;18.20;;;4.60;88.00;;;;;;5016374;28;20025;-81
2022/11/20 13:06:50;;;;;;;;;;;4.50;88.40;;;;;;5017174;28;20025;-81
2022/11/20 13:09:18;;;;;;;25.67;15.90;;;4.50;88.50;;;;;;5000726;28;19955;-81
2022/11/20 13:12:02;;;;;;;26.97;16.37;;;4.60;88.40;;;;;;5016707;28;20053;-80
2022/11/20 13:14:46;;;;;;;30.52;17.70;;;4.50;88.10;;;;;;5015921;28;20132;-81
2022/11/20 13:17:18;;;;;;;;;;;4.50;88.30;;;;;;5017313;28;20029;-81